createdAt,value
2018-07-24T00:01:01.913Z,0
2018-07-24T00:02:11.055Z,0
2018-07-24T00:03:20.196Z,0
2018-07-24T00:04:29.058Z,0
2018-07-24T00:05:38.197Z,0
2018-07-24T00:06:47.340Z,0
2018-07-24T00:07:56.203Z,0
2018-07-24T00:09:05.073Z,0
2018-07-24T00:10:13.936Z,0
2018-07-24T00:11:22.954Z,0
2018-07-24T00:12:31.812Z,0
2018-07-24T00:13:40.959Z,0
2018-07-24T00:14:49.827Z,0
2018-07-24T00:15:58.690Z,0
2018-07-24T00:17:07.704Z,0
2018-07-24T00:18:16.570Z,0
2018-07-24T00:19:25.445Z,0
2018-07-24T00:20:34.607Z,0
2018-07-24T00:21:43.472Z,0
2018-07-24T00:22:52.433Z,0
2018-07-24T00:24:01.577Z,0
2018-07-24T00:25:10.722Z,0
2018-07-24T00:26:19.580Z,0
2018-07-24T00:27:28.445Z,0
2018-07-24T00:28:37.315Z,0
2018-07-24T00:29:46.177Z,0
2018-07-24T00:30:55.042Z,0
2018-07-24T00:32:04.579Z,0
2018-07-24T00:33:13.419Z,0
2018-07-24T00:34:22.280Z,0
2018-07-24T00:35:31.145Z,0
2018-07-24T00:36:40.013Z,0
2018-07-24T00:37:49.152Z,0
2018-07-24T00:39:01.320Z,0
2018-07-24T00:40:10.469Z,0
2018-07-24T00:41:19.662Z,0
2018-07-24T00:42:28.809Z,0
2018-07-24T00:43:37.948Z,0
2018-07-24T00:44:46.812Z,0
2018-07-24T00:45:55.826Z,0
2018-07-24T00:47:04.689Z,0
2018-07-24T00:48:13.553Z,0
2018-07-24T00:49:22.420Z,0
2018-07-24T00:50:31.557Z,0
2018-07-24T00:51:40.573Z,0
2018-07-24T00:52:49.717Z,0
2018-07-24T00:53:58.581Z,0
2018-07-24T00:55:07.448Z,0
2018-07-24T00:56:16.604Z,0
2018-07-24T00:57:25.842Z,0
2018-07-24T00:58:34.706Z,0
2018-07-24T00:59:43.846Z,0
2018-07-24T01:00:52.708Z,0
2018-07-24T01:02:01.848Z,0
2018-07-24T01:03:11.063Z,0
2018-07-24T01:04:20.207Z,0
2018-07-24T01:05:29.070Z,0
2018-07-24T01:06:37.930Z,0
2018-07-24T01:07:46.795Z,0
2018-07-24T01:08:55.657Z,0
2018-07-24T01:10:04.798Z,0
2018-07-24T01:11:13.665Z,0
2018-07-24T01:12:22.531Z,0
2018-07-24T01:13:31.392Z,0
2018-07-24T01:14:40.812Z,0
2018-07-24T01:15:49.951Z,0
2018-07-24T01:16:58.814Z,0
2018-07-24T01:18:07.959Z,0
2018-07-24T01:19:17.101Z,0
2018-07-24T01:20:26.116Z,0
2018-07-24T01:21:35.261Z,0
2018-07-24T01:22:44.123Z,0
2018-07-24T01:23:52.988Z,0
2018-07-24T01:25:02.125Z,0
2018-07-24T01:26:11.094Z,0
2018-07-24T01:27:20.507Z,0
2018-07-24T01:28:29.372Z,0
2018-07-24T01:29:38.232Z,0
2018-07-24T01:30:47.375Z,0
2018-07-24T01:31:56.593Z,0
2018-07-24T01:33:05.451Z,0
2018-07-24T01:34:14.313Z,0
2018-07-24T01:35:23.176Z,0
2018-07-24T01:36:32.043Z,0
2018-07-24T01:37:41.053Z,0
2018-07-24T01:38:49.918Z,0
2018-07-24T01:39:58.782Z,0
2018-07-24T01:41:07.647Z,0
2018-07-24T01:42:16.510Z,0
2018-07-24T01:43:25.370Z,0
2018-07-24T01:44:34.241Z,0
2018-07-24T01:45:43.387Z,0
2018-07-24T01:46:52.529Z,0
2018-07-24T01:48:01.392Z,0
2018-07-24T01:49:10.363Z,0
2018-07-24T01:50:19.506Z,0
2018-07-24T01:51:28.374Z,0
2018-07-24T01:52:37.241Z,0
2018-07-24T01:53:46.100Z,0
2018-07-24T01:54:55.112Z,0
2018-07-24T01:56:04.008Z,0
2018-07-24T01:57:12.837Z,0
2018-07-24T01:58:21.701Z,0
2018-07-24T01:59:30.565Z,0
2018-07-24T02:00:39.580Z,0
2018-07-24T02:01:48.441Z,0
2018-07-24T02:02:57.307Z,0
2018-07-24T02:04:06.171Z,0
2018-07-24T02:05:15.313Z,0
2018-07-24T02:06:24.276Z,0
2018-07-24T02:07:33.138Z,0
2018-07-24T02:08:42.000Z,0
2018-07-24T02:09:50.866Z,0
2018-07-24T02:10:59.731Z,0
2018-07-24T02:12:08.873Z,0
2018-07-24T02:13:18.012Z,0
2018-07-24T02:14:26.873Z,0
2018-07-24T02:15:35.737Z,0
2018-07-24T02:16:44.600Z,0
2018-07-24T02:17:53.567Z,0
2018-07-24T02:19:02.426Z,0
2018-07-24T02:20:11.287Z,0
2018-07-24T02:21:20.152Z,0
2018-07-24T02:22:29.016Z,0
2018-07-24T02:23:38.227Z,0
2018-07-24T02:24:47.091Z,0
2018-07-24T02:25:55.956Z,0
2018-07-24T02:27:04.825Z,0
2018-07-24T02:28:13.684Z,0
2018-07-24T02:29:22.826Z,0
2018-07-24T02:30:31.690Z,0
2018-07-24T02:31:40.574Z,0
2018-07-24T02:32:49.415Z,0
2018-07-24T02:33:58.287Z,0
2018-07-24T02:35:07.428Z,0
2018-07-24T02:36:16.576Z,0
2018-07-24T02:37:26.269Z,0
2018-07-24T02:38:35.413Z,0
2018-07-24T02:39:44.279Z,0
2018-07-24T02:40:53.842Z,0
2018-07-24T02:42:03.009Z,0
2018-07-24T02:43:11.882Z,0
2018-07-24T02:44:20.751Z,0
2018-07-24T02:45:29.612Z,0
2018-07-24T02:46:38.475Z,0
2018-07-24T02:47:47.338Z,0
2018-07-24T02:48:56.768Z,0
2018-07-24T02:50:05.641Z,0
2018-07-24T02:51:15.345Z,4
2018-07-24T02:52:24.838Z,4
2018-07-24T02:53:33.986Z,0
2018-07-24T02:54:43.130Z,0
2018-07-24T02:55:51.992Z,4
2018-07-24T02:57:00.858Z,4
2018-07-24T02:58:09.721Z,4
2018-07-24T02:59:18.863Z,4
2018-07-24T03:00:28.012Z,4
2018-07-24T03:01:36.878Z,8
2018-07-24T03:02:46.302Z,8
2018-07-24T03:03:55.720Z,8
2018-07-24T03:05:04.883Z,8
2018-07-24T03:06:13.752Z,8
2018-07-24T03:07:23.179Z,12
2018-07-24T03:08:32.323Z,16
2018-07-24T03:09:41.616Z,20
2018-07-24T03:10:50.763Z,20
2018-07-24T03:12:00.456Z,20
2018-07-24T03:13:10.162Z,28
2018-07-24T03:14:19.303Z,32
2018-07-24T03:15:28.169Z,36
2018-07-24T03:16:37.308Z,40
2018-07-24T03:17:46.169Z,44
2018-07-24T03:18:55.049Z,48
2018-07-24T03:20:04.745Z,56
2018-07-24T03:21:13.990Z,64
2018-07-24T03:22:22.848Z,72
2018-07-24T03:23:31.991Z,76
2018-07-24T03:24:41.130Z,88
2018-07-24T03:25:50.544Z,96
2018-07-24T03:26:59.685Z,104
2018-07-24T03:28:08.549Z,116
2018-07-24T03:29:17.694Z,128
2018-07-24T03:30:26.559Z,136
2018-07-24T03:31:35.424Z,152
2018-07-24T03:32:44.720Z,160
2018-07-24T03:33:53.861Z,176
2018-07-24T03:35:02.724Z,192
2018-07-24T03:36:11.591Z,204
2018-07-24T03:37:20.746Z,216
2018-07-24T03:38:29.965Z,236
2018-07-24T03:39:38.822Z,248
2018-07-24T03:40:47.684Z,268
2018-07-24T03:41:57.105Z,284
2018-07-24T03:43:05.965Z,300
2018-07-24T03:44:15.175Z,316
2018-07-24T03:45:24.340Z,332
2018-07-24T03:46:33.208Z,352
2018-07-24T03:47:42.348Z,368
2018-07-24T03:48:51.491Z,388
2018-07-24T03:50:00.631Z,408
2018-07-24T03:51:09.496Z,424
2018-07-24T03:52:18.358Z,444
2018-07-24T03:53:27.220Z,464
2018-07-24T03:54:36.358Z,480
2018-07-24T03:55:45.218Z,500
2018-07-24T03:56:54.354Z,520
2018-07-24T03:58:03.229Z,536
2018-07-24T03:59:12.080Z,556
2018-07-24T04:00:20.943Z,576
2018-07-24T04:01:29.807Z,596
2018-07-24T04:02:38.945Z,612
2018-07-24T04:03:47.809Z,632
2018-07-24T04:04:56.669Z,648
2018-07-24T04:06:05.534Z,668
2018-07-24T04:07:14.954Z,684
2018-07-24T04:08:24.093Z,704
2018-07-24T04:09:32.958Z,724
2018-07-24T04:10:41.822Z,736
2018-07-24T04:11:50.684Z,756
2018-07-24T04:12:59.545Z,776
2018-07-24T04:14:08.411Z,788
2018-07-24T04:15:17.275Z,808
2018-07-24T04:16:26.138Z,824
2018-07-24T04:17:35.002Z,840
2018-07-24T04:18:44.024Z,852
2018-07-24T04:19:53.157Z,868
2018-07-24T04:21:02.300Z,884
2018-07-24T04:22:11.447Z,900
2018-07-24T04:23:20.313Z,916
2018-07-24T04:24:29.320Z,928
2018-07-24T04:25:38.186Z,940
2018-07-24T04:26:47.323Z,956
2018-07-24T04:27:56.191Z,972
2018-07-24T04:29:05.327Z,984
2018-07-24T04:30:14.287Z,996
2018-07-24T04:31:23.151Z,1012
2018-07-24T04:32:32.014Z,1020
2018-07-24T04:33:40.877Z,1032
2018-07-24T04:34:49.741Z,1048
2018-07-24T04:35:58.954Z,1056
2018-07-24T04:37:07.816Z,1072
2018-07-24T04:38:16.678Z,1084
2018-07-24T04:39:25.595Z,1092
2018-07-24T04:40:34.964Z,1108
2018-07-24T04:41:44.256Z,1116
2018-07-24T04:42:53.675Z,1124
2018-07-24T04:44:02.538Z,1136
2018-07-24T04:45:11.402Z,1148
2018-07-24T04:46:20.264Z,1156
2018-07-24T04:47:29.229Z,1164
2018-07-24T04:48:38.364Z,1176
2018-07-24T04:49:47.227Z,1184
2018-07-24T04:50:56.090Z,1196
2018-07-24T04:52:04.952Z,1204
2018-07-24T04:53:13.819Z,1212
2018-07-24T04:54:22.953Z,1224
2018-07-24T04:55:32.093Z,1232
2018-07-24T04:56:40.957Z,1240
2018-07-24T04:57:50.097Z,1248
2018-07-24T04:58:58.960Z,1256
2018-07-24T05:00:08.103Z,1268
2018-07-24T05:01:16.965Z,1276
2018-07-24T05:02:25.824Z,1280
2018-07-24T05:03:34.993Z,1288
2018-07-24T05:04:44.143Z,1296
2018-07-24T05:05:53.006Z,1304
2018-07-24T05:07:01.870Z,1308
2018-07-24T05:08:10.734Z,1320
2018-07-24T05:09:19.596Z,1324
2018-07-24T05:10:28.901Z,1332
2018-07-24T05:11:38.119Z,1340
2018-07-24T05:12:46.970Z,1344
2018-07-24T05:13:55.835Z,1348
2018-07-24T05:15:04.974Z,1356
2018-07-24T05:16:14.116Z,1360
2018-07-24T05:17:22.976Z,1368
2018-07-24T05:18:31.846Z,1372
2018-07-24T05:19:40.708Z,1380
2018-07-24T05:20:49.571Z,1384
2018-07-24T05:21:58.592Z,1388
2018-07-24T05:23:07.458Z,1396
2018-07-24T05:24:16.325Z,1400
2018-07-24T05:25:25.191Z,1408
2018-07-24T05:26:34.057Z,1408
2018-07-24T05:27:42.914Z,1420
2018-07-24T05:28:51.779Z,1424
2018-07-24T05:30:00.646Z,1424
2018-07-24T05:31:09.510Z,1432
2018-07-24T05:32:18.375Z,1440
2018-07-24T05:33:27.615Z,1444
2018-07-24T05:34:36.479Z,1452
2018-07-24T05:35:45.339Z,1456
2018-07-24T05:36:54.204Z,1456
2018-07-24T05:38:03.074Z,1464
2018-07-24T05:39:12.363Z,1468
2018-07-24T05:40:21.233Z,1472
2018-07-24T05:41:30.100Z,1480
2018-07-24T05:42:39.236Z,1484
2018-07-24T05:43:48.095Z,1488
2018-07-24T05:44:56.961Z,1492
2018-07-24T05:46:06.104Z,1500
2018-07-24T05:47:14.968Z,1500
2018-07-24T05:48:23.833Z,1504
2018-07-24T05:49:32.976Z,1508
2018-07-24T05:50:41.841Z,1512
2018-07-24T05:51:50.705Z,1512
2018-07-24T05:52:59.570Z,1516
2018-07-24T05:54:08.430Z,1520
2018-07-24T05:55:17.320Z,1524
2018-07-24T05:56:26.460Z,1528
2018-07-24T05:57:35.606Z,1532
2018-07-24T05:58:44.470Z,1536
2018-07-24T05:59:53.333Z,1540
2018-07-24T06:01:02.475Z,1544
2018-07-24T06:02:11.339Z,1548
2018-07-24T06:03:20.481Z,1548
2018-07-24T06:04:29.347Z,1552
2018-07-24T06:05:38.777Z,1556
2018-07-24T06:06:47.642Z,1564
2018-07-24T06:07:56.784Z,1564
2018-07-24T06:09:05.648Z,1568
2018-07-24T06:10:14.520Z,1572
2018-07-24T06:11:23.669Z,1572
2018-07-24T06:12:32.534Z,1580
2018-07-24T06:13:41.398Z,1580
2018-07-24T06:14:50.263Z,1584
2018-07-24T06:15:59.222Z,1584
2018-07-24T06:17:08.096Z,1588
2018-07-24T06:18:17.263Z,1592
2018-07-24T06:19:26.131Z,1596
2018-07-24T06:20:35.000Z,1600
2018-07-24T06:21:43.871Z,1600
2018-07-24T06:22:52.728Z,1604
2018-07-24T06:24:01.593Z,1608
2018-07-24T06:25:10.738Z,1612
2018-07-24T06:26:20.151Z,1612
2018-07-24T06:27:29.015Z,1612
2018-07-24T06:28:38.162Z,1620
2018-07-24T06:29:47.034Z,1620
2018-07-24T06:30:55.895Z,1620
2018-07-24T06:32:04.759Z,1624
2018-07-24T06:33:13.625Z,1628
2018-07-24T06:34:22.494Z,1632
2018-07-24T06:35:31.357Z,1632
2018-07-24T06:36:40.221Z,1628
2018-07-24T06:37:49.087Z,1636
2018-07-24T06:38:58.048Z,1636
2018-07-24T06:40:06.923Z,1636
2018-07-24T06:41:15.780Z,1640
2018-07-24T06:42:24.654Z,1644
2018-07-24T06:43:34.067Z,1652
2018-07-24T06:44:43.305Z,1652
2018-07-24T06:45:52.168Z,1660
2018-07-24T06:47:01.033Z,1656
2018-07-24T06:48:09.898Z,1660
2018-07-24T06:49:19.044Z,1660
2018-07-24T06:50:28.162Z,1664
2018-07-24T06:51:37.952Z,1668
2018-07-24T06:52:47.691Z,1668
2018-07-24T06:53:56.827Z,1668
2018-07-24T06:55:05.694Z,1676
2018-07-24T06:56:14.562Z,1676
2018-07-24T06:57:23.707Z,1676
2018-07-24T06:58:32.857Z,1680
2018-07-24T06:59:41.726Z,1684
2018-07-24T07:00:50.596Z,1688
2018-07-24T07:02:00.489Z,1692
2018-07-24T07:03:09.348Z,1696
2018-07-24T07:04:18.216Z,1696
2018-07-24T07:05:27.353Z,1700
2018-07-24T07:06:36.217Z,1700
2018-07-24T07:07:46.261Z,1704
2018-07-24T07:08:55.405Z,1708
2018-07-24T07:10:04.270Z,1708
2018-07-24T07:11:13.146Z,1712
2018-07-24T07:12:22.304Z,1712
2018-07-24T07:13:31.593Z,1712
2018-07-24T07:14:40.811Z,1716
2018-07-24T07:15:49.951Z,1720
2018-07-24T07:16:58.816Z,1724
2018-07-24T07:18:07.681Z,1724
2018-07-24T07:19:16.896Z,1732
2018-07-24T07:20:25.811Z,1740
2018-07-24T07:21:34.628Z,1744
2018-07-24T07:22:43.779Z,1752
2018-07-24T07:23:52.641Z,1752
2018-07-24T07:25:01.505Z,1760
2018-07-24T07:26:10.742Z,1760
2018-07-24T07:27:19.885Z,1760
2018-07-24T07:28:29.022Z,1756
2018-07-24T07:29:37.903Z,1756
2018-07-24T07:30:46.869Z,1760
2018-07-24T07:31:56.012Z,1760
2018-07-24T07:33:04.877Z,1764
2018-07-24T07:34:14.023Z,1768
2018-07-24T07:35:22.886Z,1772
2018-07-24T07:36:31.908Z,1772
2018-07-24T07:37:41.052Z,1776
2018-07-24T07:38:49.917Z,1776
2018-07-24T07:39:58.780Z,1776
2018-07-24T07:41:07.649Z,1776
2018-07-24T07:42:16.667Z,1784
2018-07-24T07:43:25.534Z,1792
2018-07-24T07:44:34.401Z,1792
2018-07-24T07:45:43.272Z,1792
2018-07-24T07:46:52.143Z,1792
2018-07-24T07:48:01.008Z,1796
2018-07-24T07:49:10.149Z,1800
2018-07-24T07:50:19.015Z,1804
2018-07-24T07:51:28.235Z,1808
2018-07-24T07:52:37.499Z,1812
2018-07-24T07:53:46.364Z,1820
2018-07-24T07:54:55.230Z,1828
2018-07-24T07:56:04.097Z,1832
2018-07-24T07:57:12.964Z,1832
2018-07-24T07:58:21.833Z,1832
2018-07-24T07:59:30.847Z,1832
2018-07-24T08:00:39.712Z,1840
2018-07-24T08:01:48.577Z,1844
2018-07-24T08:02:57.443Z,1852
2018-07-24T08:04:06.309Z,1860
2018-07-24T08:05:16.072Z,1868
2018-07-24T08:06:25.215Z,1868
2018-07-24T08:07:34.650Z,1868
2018-07-24T08:08:43.614Z,1868
2018-07-24T08:09:52.761Z,1872
2018-07-24T08:11:01.629Z,1876
2018-07-24T08:12:10.494Z,1880
2018-07-24T08:13:19.359Z,1884
2018-07-24T08:14:28.225Z,1888
2018-07-24T08:15:37.092Z,1892
2018-07-24T08:16:46.114Z,1900
2018-07-24T08:17:55.251Z,1900
2018-07-24T08:19:04.499Z,1904
2018-07-24T08:20:13.681Z,1912
2018-07-24T08:21:22.930Z,1916
2018-07-24T08:22:32.391Z,1920
2018-07-24T08:23:41.821Z,1928
2018-07-24T08:24:51.133Z,1932
2018-07-24T08:26:00.217Z,1936
2018-07-24T08:27:09.513Z,1944
2018-07-24T08:28:19.216Z,1948
2018-07-24T08:29:28.494Z,1956
2018-07-24T08:30:37.362Z,1968
2018-07-24T08:31:46.230Z,1984
2018-07-24T08:32:55.098Z,1996
2018-07-24T08:34:04.241Z,2004
2018-07-24T08:35:13.109Z,1992
2018-07-24T08:36:21.976Z,1992
2018-07-24T08:37:31.271Z,1996
2018-07-24T08:38:40.209Z,1996
2018-07-24T08:39:49.082Z,2004
2018-07-24T08:40:57.949Z,2012
2018-07-24T08:42:06.817Z,2016
2018-07-24T08:43:15.688Z,2020
2018-07-24T08:44:24.556Z,2032
2018-07-24T08:45:33.576Z,2044
2018-07-24T08:46:42.442Z,2060
2018-07-24T08:47:51.664Z,2072
2018-07-24T08:49:00.647Z,2080
2018-07-24T08:50:09.403Z,2080
2018-07-24T08:51:18.554Z,2096
2018-07-24T08:52:27.440Z,2112
2018-07-24T08:53:36.488Z,2120
2018-07-24T08:54:45.368Z,2124
2018-07-24T08:55:54.941Z,2128
2018-07-24T08:57:04.078Z,2136
2018-07-24T08:58:12.945Z,2144
2018-07-24T08:59:21.828Z,2156
2018-07-24T09:00:30.693Z,2172
2018-07-24T09:01:39.547Z,2184
2018-07-24T09:02:48.412Z,2192
2018-07-24T09:03:57.280Z,2192
2018-07-24T09:05:06.842Z,2196
2018-07-24T09:06:15.990Z,2204
2018-07-24T09:07:24.859Z,2208
2018-07-24T09:08:33.726Z,2212
2018-07-24T09:09:42.598Z,2220
2018-07-24T09:10:51.465Z,2228
2018-07-24T09:12:00.334Z,2236
2018-07-24T09:13:09.769Z,2240
2018-07-24T09:14:18.627Z,2244
2018-07-24T09:15:27.864Z,2252
2018-07-24T09:16:37.188Z,2256
2018-07-24T09:17:46.061Z,2268
2018-07-24T09:18:55.201Z,2288
2018-07-24T09:20:04.074Z,2308
2018-07-24T09:21:13.218Z,2332
2018-07-24T09:22:22.467Z,2356
2018-07-24T09:23:31.617Z,2368
2018-07-24T09:24:40.764Z,2384
2018-07-24T09:25:49.659Z,2408
2018-07-24T09:26:58.862Z,2428
2018-07-24T09:28:08.125Z,2432
2018-07-24T09:29:16.992Z,2428
2018-07-24T09:30:25.862Z,2432
2018-07-24T09:31:34.729Z,2452
2018-07-24T09:32:43.883Z,2476
2018-07-24T09:33:52.743Z,2544
2018-07-24T09:35:01.630Z,2568
2018-07-24T09:36:10.499Z,2556
2018-07-24T09:37:19.363Z,2548
2018-07-24T09:38:28.230Z,2552
2018-07-24T09:39:37.100Z,2560
2018-07-24T09:40:45.970Z,2560
2018-07-24T09:41:55.113Z,2564
2018-07-24T09:43:03.983Z,2564
2018-07-24T09:44:12.851Z,2580
2018-07-24T09:45:21.872Z,2592
2018-07-24T09:46:30.742Z,2604
2018-07-24T09:47:39.884Z,2608
2018-07-24T09:48:48.751Z,2612
2018-07-24T09:49:57.619Z,2620
2018-07-24T09:51:07.124Z,2620
2018-07-24T09:52:16.275Z,2620
2018-07-24T09:53:25.145Z,2616
2018-07-24T09:54:34.014Z,2616
2018-07-24T09:55:42.881Z,2624
2018-07-24T09:56:51.750Z,2644
2018-07-24T09:58:00.621Z,2680
2018-07-24T09:59:09.499Z,2720
2018-07-24T10:00:18.649Z,2760
2018-07-24T10:01:27.516Z,2788
2018-07-24T10:02:36.390Z,2812
2018-07-24T10:03:45.258Z,2832
2018-07-24T10:04:54.126Z,2848
2018-07-24T10:06:03.272Z,2864
2018-07-24T10:07:12.142Z,2876
2018-07-24T10:08:21.017Z,2884
2018-07-24T10:09:29.881Z,2888
2018-07-24T10:10:38.747Z,2888
2018-07-24T10:11:47.619Z,2884
2018-07-24T10:12:56.529Z,2884
2018-07-24T10:14:05.997Z,2884
2018-07-24T10:15:14.863Z,2900
2018-07-24T10:16:23.796Z,2936
2018-07-24T10:17:32.604Z,2988
2018-07-24T10:18:41.804Z,3040
2018-07-24T10:19:50.772Z,3072
2018-07-24T10:20:59.646Z,3132
2018-07-24T10:22:08.531Z,3204
2018-07-24T10:23:17.684Z,3272
2018-07-24T10:24:26.598Z,3412
2018-07-24T10:25:35.576Z,3440
2018-07-24T10:26:44.448Z,3252
2018-07-24T10:27:53.317Z,3124
2018-07-24T10:29:02.460Z,3096
2018-07-24T10:30:11.333Z,3100
2018-07-24T10:31:20.627Z,3112
2018-07-24T10:32:29.779Z,3144
2018-07-24T10:33:38.647Z,3176
2018-07-24T10:34:47.514Z,3204
2018-07-24T10:35:56.384Z,3212
2018-07-24T10:37:05.350Z,3236
2018-07-24T10:38:14.217Z,3228
2018-07-24T10:39:23.087Z,3208
2018-07-24T10:40:31.961Z,3188
2018-07-24T10:41:40.831Z,3176
2018-07-24T10:42:49.801Z,3168
2018-07-24T10:43:58.672Z,3168
2018-07-24T10:45:07.542Z,3180
2018-07-24T10:46:16.412Z,3204
2018-07-24T10:47:25.285Z,3232
2018-07-24T10:48:34.153Z,3264
2018-07-24T10:49:43.022Z,3308
2018-07-24T10:50:51.893Z,3344
2018-07-24T10:52:00.768Z,3380
2018-07-24T10:53:09.912Z,3400
2018-07-24T10:54:18.784Z,3420
2018-07-24T10:55:27.655Z,3436
2018-07-24T10:56:36.808Z,3452
2018-07-24T10:57:45.678Z,3472
2018-07-24T10:58:54.547Z,3504
2018-07-24T11:00:03.696Z,3532
2018-07-24T11:01:12.843Z,3552
2018-07-24T11:02:21.989Z,3564
2018-07-24T11:03:31.139Z,3576
2018-07-24T11:04:40.016Z,3592
2018-07-24T11:05:49.545Z,3644
2018-07-24T11:06:58.416Z,3688
2018-07-24T11:08:07.284Z,3720
2018-07-24T11:09:16.987Z,3788
2018-07-24T11:10:25.857Z,3836
2018-07-24T11:11:34.726Z,3836
2018-07-24T11:12:43.599Z,3804
2018-07-24T11:13:52.471Z,3828
2018-07-24T11:15:01.340Z,3864
2018-07-24T11:16:10.209Z,3888
2018-07-24T11:17:19.076Z,3884
2018-07-24T11:18:27.946Z,3888
2018-07-24T11:19:36.815Z,3892
2018-07-24T11:20:45.685Z,3884
2018-07-24T11:21:54.633Z,3904
2018-07-24T11:23:04.607Z,3988
2018-07-24T11:24:14.515Z,4056
2018-07-24T11:25:23.380Z,4124
2018-07-24T11:26:32.248Z,4208
2018-07-24T11:27:41.400Z,4748
2018-07-24T11:28:50.274Z,4776
2018-07-24T11:29:59.142Z,4788
2018-07-24T11:31:08.307Z,4816
2018-07-24T11:32:17.178Z,4808
2018-07-24T11:33:26.140Z,4812
2018-07-24T11:34:35.313Z,4844
2018-07-24T11:35:44.354Z,4888
2018-07-24T11:36:53.606Z,4940
2018-07-24T11:38:02.476Z,4996
2018-07-24T11:39:11.627Z,5036
2018-07-24T11:40:20.599Z,5088
2018-07-24T11:41:29.472Z,5160
2018-07-24T11:42:38.343Z,5204
2018-07-24T11:43:47.537Z,5240
2018-07-24T11:44:56.408Z,5288
2018-07-24T11:46:05.440Z,5228
2018-07-24T11:47:14.307Z,5248
2018-07-24T11:48:23.453Z,5268
2018-07-24T11:49:32.333Z,5256
2018-07-24T11:50:41.484Z,5252
2018-07-24T11:51:50.992Z,5280
2018-07-24T11:52:59.745Z,5368
2018-07-24T11:54:08.619Z,5480
2018-07-24T11:55:18.055Z,5624
2018-07-24T11:56:26.930Z,5792
2018-07-24T11:57:36.143Z,6072
2018-07-24T11:58:45.039Z,6332
2018-07-24T11:59:53.828Z,6640
2018-07-24T12:01:02.697Z,7384
2018-07-24T12:02:11.569Z,19776
2018-07-24T12:03:20.719Z,64288
2018-07-24T12:04:29.590Z,76896
2018-07-24T12:05:38.465Z,78208
2018-07-24T12:06:47.339Z,72576
2018-07-24T12:07:56.272Z,74688
2018-07-24T12:09:05.486Z,73280
2018-07-24T12:10:14.637Z,71680
2018-07-24T12:11:23.527Z,79232
2018-07-24T12:12:32.387Z,80704
2018-07-24T12:13:41.261Z,80704
2018-07-24T12:14:50.153Z,75616
2018-07-24T12:15:59.702Z,80576
2018-07-24T12:17:08.575Z,79456
2018-07-24T12:18:17.460Z,81216
2018-07-24T12:19:26.659Z,82816
2018-07-24T12:20:35.489Z,81664
2018-07-24T12:21:44.365Z,81216
2018-07-24T12:22:53.247Z,85536
2018-07-24T12:24:02.128Z,79968
2018-07-24T12:25:11.287Z,77728
2018-07-24T12:26:20.262Z,81376
2018-07-24T12:27:29.141Z,83680
2018-07-24T12:28:38.060Z,86496
2018-07-24T12:29:47.001Z,85056
2018-07-24T12:30:56.158Z,77824
2018-07-24T12:32:05.323Z,78944
2018-07-24T12:33:14.204Z,77888
2018-07-24T12:34:23.083Z,77216
2018-07-24T12:35:31.961Z,78912
2018-07-24T12:36:40.889Z,86048
2018-07-24T12:37:50.100Z,92640
2018-07-24T12:38:58.979Z,88000
2018-07-24T12:40:07.862Z,87200
2018-07-24T12:41:16.747Z,85632
2018-07-24T12:42:25.901Z,77632
2018-07-24T12:43:35.490Z,79424
2018-07-24T12:44:44.317Z,89312
2018-07-24T12:45:53.474Z,84448
2018-07-24T12:47:02.375Z,68256
2018-07-24T12:48:11.246Z,61952
2018-07-24T12:49:20.417Z,63392
2018-07-24T12:50:29.591Z,53408
2018-07-24T12:51:38.464Z,48544
2018-07-24T12:52:47.445Z,51392
2018-07-24T12:53:56.327Z,46880
2018-07-24T12:55:05.762Z,49280
2018-07-24T12:56:14.644Z,64896
2018-07-24T12:57:23.526Z,72064
2018-07-24T12:58:32.406Z,69408
2018-07-24T12:59:41.578Z,71040
2018-07-24T13:00:50.737Z,76736
2018-07-24T13:01:59.622Z,81792
2018-07-24T13:03:08.505Z,84928
2018-07-24T13:04:18.106Z,85792
2018-07-24T13:05:26.996Z,83552
2018-07-24T13:06:36.428Z,84224
2018-07-24T13:07:45.308Z,78528
2018-07-24T13:08:54.190Z,81216
2018-07-24T13:10:03.884Z,86656
2018-07-24T13:11:13.164Z,81120
2018-07-24T13:12:22.149Z,76736
2018-07-24T13:13:31.309Z,78112
2018-07-24T13:14:40.191Z,76320
2018-07-24T13:15:49.073Z,80640
2018-07-24T13:16:57.957Z,84448
2018-07-24T13:18:07.270Z,86016
2018-07-24T13:19:16.153Z,86464
2018-07-24T13:20:25.036Z,85440
2018-07-24T13:21:33.921Z,89120
2018-07-24T13:22:42.806Z,89792
2018-07-24T13:23:51.966Z,84640
2018-07-24T13:25:00.867Z,85952
2018-07-24T13:26:10.031Z,87328
2018-07-24T13:27:19.189Z,91424
2018-07-24T13:28:28.077Z,92320
2018-07-24T13:29:37.240Z,88384
2018-07-24T13:30:46.583Z,88224
2018-07-24T13:31:56.464Z,88512
2018-07-24T13:33:05.584Z,84096
2018-07-24T13:34:14.618Z,86848
2018-07-24T13:35:23.853Z,89376
2018-07-24T13:36:33.014Z,84960
2018-07-24T13:37:42.394Z,86432
2018-07-24T13:38:51.174Z,87360
2018-07-24T13:40:00.060Z,90304
2018-07-24T13:41:09.296Z,89120
2018-07-24T13:42:18.181Z,87328
2018-07-24T13:43:27.067Z,82432
2018-07-24T13:44:35.952Z,85440
2018-07-24T13:45:44.840Z,87872
2018-07-24T13:46:54.147Z,86912
2018-07-24T13:48:03.032Z,88928
2018-07-24T13:49:11.914Z,88000
2018-07-24T13:50:20.796Z,84704
2018-07-24T13:51:29.686Z,85376
2018-07-24T13:52:38.568Z,86816
2018-07-24T13:53:47.452Z,89312
2018-07-24T13:54:56.630Z,86752
2018-07-24T13:56:05.523Z,84864
2018-07-24T13:57:14.411Z,84736
2018-07-24T13:58:23.298Z,85952
2018-07-24T13:59:32.181Z,85376
2018-07-24T14:00:41.067Z,85856
2018-07-24T14:01:49.961Z,83360
2018-07-24T14:02:59.121Z,82240
2018-07-24T14:04:08.435Z,86112
2018-07-24T14:05:17.359Z,85696
2018-07-24T14:06:26.248Z,82912
2018-07-24T14:07:35.411Z,85824
2018-07-24T14:08:44.298Z,85568
2018-07-24T14:09:53.333Z,80608
2018-07-24T14:11:02.218Z,83456
2018-07-24T14:12:11.376Z,85792
2018-07-24T14:13:20.261Z,87712
2018-07-24T14:14:29.427Z,87712
2018-07-24T14:15:39.025Z,87328
2018-07-24T14:16:48.185Z,88352
2018-07-24T14:17:57.073Z,87392
2018-07-24T14:19:05.959Z,87648
2018-07-24T14:20:15.125Z,86400
2018-07-24T14:21:24.112Z,83008
2018-07-24T14:22:32.996Z,84416
2018-07-24T14:23:41.883Z,87136
2018-07-24T14:24:50.797Z,83104
2018-07-24T14:26:00.247Z,79072
2018-07-24T14:27:09.281Z,75904
2018-07-24T14:28:18.168Z,80352
2018-07-24T14:29:27.057Z,82912
2018-07-24T14:30:35.944Z,81504
2018-07-24T14:31:44.831Z,80960
2018-07-24T14:32:53.716Z,81312
2018-07-24T14:34:02.878Z,84384
2018-07-24T14:35:12.049Z,80288
2018-07-24T14:36:20.938Z,77280
2018-07-24T14:37:29.822Z,79936
2018-07-24T14:38:38.708Z,81856
2018-07-24T14:39:47.596Z,81504
2018-07-24T14:40:56.483Z,79520
2018-07-24T14:42:05.365Z,77856
2018-07-24T14:43:14.253Z,78400
2018-07-24T14:44:23.568Z,77696
2018-07-24T14:45:32.458Z,81440
2018-07-24T14:46:41.342Z,82176
2018-07-24T14:47:50.226Z,81408
2018-07-24T14:48:59.113Z,77920
2018-07-24T14:50:08.098Z,81024
2018-07-24T14:51:16.984Z,81952
2018-07-24T14:52:25.878Z,76992
2018-07-24T14:53:34.763Z,76576
2018-07-24T14:54:43.955Z,79232
2018-07-24T14:55:53.270Z,81024
2018-07-24T14:57:02.161Z,80544
2018-07-24T14:58:11.612Z,80608
2018-07-24T14:59:20.511Z,79872
2018-07-24T15:00:29.396Z,80448
2018-07-24T15:01:38.990Z,77888
2018-07-24T15:02:47.878Z,78784
2018-07-24T15:03:57.050Z,77920
2018-07-24T15:05:06.218Z,79744
2018-07-24T15:06:15.105Z,82432
2018-07-24T15:07:24.142Z,80096
2018-07-24T15:08:33.319Z,77280
2018-07-24T15:09:42.206Z,79424
2018-07-24T15:10:51.094Z,80160
2018-07-24T15:11:59.979Z,78304
2018-07-24T15:13:08.967Z,79200
2018-07-24T15:14:18.218Z,79296
2018-07-24T15:15:27.109Z,77344
2018-07-24T15:16:36.123Z,74336
2018-07-24T15:17:45.020Z,74464
2018-07-24T15:18:54.356Z,76224
2018-07-24T15:20:03.395Z,77600
2018-07-24T15:21:12.299Z,76064
2018-07-24T15:22:21.213Z,75456
2018-07-24T15:23:30.147Z,75840
2018-07-24T15:24:39.746Z,73664
2018-07-24T15:25:48.733Z,72288
2018-07-24T15:26:57.631Z,72128
2018-07-24T15:28:06.953Z,70656
2018-07-24T15:29:15.918Z,66336
2018-07-24T15:30:24.838Z,67072
2018-07-24T15:31:33.766Z,68576
2018-07-24T15:32:43.457Z,69856
2018-07-24T15:33:52.519Z,71392